Coleman, Canada
Current Conditions -  °F | °C
As of 5:32 PM on Thursday 27 Nov 2014 (Local Time) from CZPC Reporting Station
Moderate Fog Moderate Fog  
Wind Chill: 13°   Ceiling: 200
Heat Index: 27°   Visibility: 0.37mi
Dew Point: 25°   Wind: 20mph
Humidity: 93%   Direction: 120°ESE
Pressure: 29.67"   Gusts: NA
Location:  49.64°N, 114.5°W
Report Text: CZPC 280032Z AUTO 12017KT 3/8SM FZFG VV002 M03/M04 A2967 RMK ICG PRESRR SLP096
Loading
Personal Weather Stations






























Interactive Weather Map New forecast layout! Learn more

10-Day Weather Forecast

Advertisements
Track Severe Weather on mobile